createdAt,value
2022-09-09T17:18:34.909Z,0.63
2022-09-09T17:21:09.060Z,0.70
2022-09-09T17:23:45.936Z,0.60
2022-09-09T17:26:16.363Z,0.65
2022-09-09T17:31:31.061Z,0.50
2022-09-09T17:33:58.855Z,0.60
2022-09-09T17:36:31.586Z,0.60
2022-09-09T17:39:00.885Z,0.40
2022-09-09T17:41:33.821Z,0.50
2022-09-09T17:44:01.488Z,0.63
2022-09-09T17:46:35.218Z,0.73
2022-09-09T17:49:12.930Z,0.57
2022-09-09T17:51:42.707Z,0.73
2022-09-09T17:54:18.291Z,1.05
2022-09-09T17:56:45.902Z,0.73
2022-09-09T17:59:14.946Z,0.60
2022-09-09T18:01:47.152Z,0.82
2022-09-09T18:04:16.208Z,0.68
2022-09-09T18:06:54.418Z,0.60
2022-09-09T18:09:24.646Z,0.93
2022-09-09T18:11:54.741Z,0.50
2022-09-09T18:14:25.444Z,1.17
2022-09-09T18:16:52.900Z,1.23
2022-09-09T18:19:23.169Z,2.15
2022-09-09T18:21:50.884Z,2.53
2022-09-09T18:24:19.568Z,2.25
2022-09-09T18:26:48.266Z,1.75
2022-09-09T18:29:20.133Z,1.77
2022-09-09T18:31:48.338Z,1.88
2022-09-09T18:34:17.896Z,2.10
2022-09-09T18:36:48.015Z,1.25
2022-09-09T18:39:17.674Z,1.40
2022-09-09T18:41:47.483Z,1.50
2022-09-09T18:44:18.578Z,1.40
2022-09-09T18:46:45.675Z,1.48
2022-09-09T18:49:13.389Z,1.10
2022-09-09T18:51:42.892Z,1.33
2022-09-09T18:54:24.225Z,1.33
2022-09-09T18:56:53.076Z,0.90
2022-09-09T18:59:21.749Z,1.67
2022-09-09T19:01:50.750Z,1.58
2022-09-09T19:04:19.273Z,1.05
2022-09-09T19:06:48.266Z,1.33
2022-09-09T19:09:18.648Z,1.65
2022-09-09T19:11:46.559Z,1.48
2022-09-09T19:14:15.653Z,1.30
2022-09-09T19:16:44.186Z,1.15
2022-09-09T19:19:23.626Z,1.52
2022-09-09T19:21:51.800Z,1.25
2022-09-09T19:24:23.760Z,1.27
2022-09-09T19:26:53.219Z,1.33
2022-09-09T19:29:22.883Z,1.15
2022-09-09T19:32:29.370Z,1.20
2022-09-09T19:34:38.984Z,1.38
2022-09-09T19:37:06.082Z,1.83
2022-09-09T19:39:34.615Z,1.80
2022-09-09T19:42:02.329Z,1.88
2022-09-09T19:44:29.633Z,1.20
2022-09-09T19:46:56.778Z,1.63
2022-09-09T19:49:23.876Z,1.33
2022-09-09T19:51:51.128Z,1.30
2022-09-09T19:54:18.229Z,1.65
2022-09-09T19:56:45.390Z,0.90
2022-09-09T19:59:13.601Z,1.13
2022-09-09T20:01:44.847Z,1.58
2022-09-09T20:04:13.942Z,0.88
2022-09-09T20:06:44.321Z,1.30
2022-09-09T20:09:16.945Z,1.02
2022-09-09T20:11:48.653Z,1.30
2022-09-09T20:14:17.339Z,1.33
2022-09-09T20:16:45.762Z,1.42
2022-09-09T20:19:16.348Z,1.17
2022-09-09T20:21:48.009Z,1.23
2022-09-09T20:24:18.289Z,1.48
2022-09-09T20:26:47.526Z,1.08
2022-09-09T20:29:17.133Z,1.27
2022-09-09T20:31:44.589Z,1.02
2022-09-09T20:34:18.822Z,0.98
2022-09-09T20:36:46.310Z,1.33
2022-09-09T20:39:16.234Z,0.70
2022-09-09T20:41:45.508Z,0.88
2022-09-09T20:44:18.613Z,1.10
2022-09-09T20:46:50.576Z,0.90
2022-09-09T20:49:20.285Z,1.15
2022-09-09T20:51:49.873Z,1.00
2022-09-09T20:54:30.457Z,0.70
2022-09-09T20:56:58.271Z,1.10
2022-09-09T20:59:27.777Z,1.10
2022-09-09T21:01:57.093Z,1.02
2022-09-09T21:04:25.194Z,1.23
2022-09-09T21:06:52.861Z,1.20
2022-09-09T21:09:22.671Z,0.90
2022-09-09T21:11:49.884Z,1.20
2022-09-09T21:14:16.869Z,1.08
2022-09-09T21:16:43.868Z,0.80
2022-09-09T21:19:11.069Z,1.00
2022-09-09T21:21:38.369Z,1.00
2022-09-09T21:24:05.672Z,1.08
2022-09-09T21:26:32.925Z,1.10
2022-09-09T21:28:59.954Z,1.25
2022-09-09T21:31:28.377Z,1.17
2022-09-09T21:33:56.938Z,0.93
2022-09-09T21:36:25.567Z,1.00
2022-09-09T21:38:52.613Z,1.08
2022-09-09T21:41:19.661Z,0.80
2022-09-09T21:43:51.777Z,1.08
2022-09-09T21:46:18.930Z,0.88
2022-09-09T21:48:46.182Z,1.00
2022-09-09T21:51:16.160Z,0.95
2022-09-09T21:53:43.836Z,1.05
2022-09-09T21:56:16.690Z,0.80
2022-09-09T21:58:44.249Z,1.02
2022-09-09T22:01:18.621Z,0.90
2022-09-09T22:03:46.438Z,1.10
2022-09-09T22:06:15.890Z,0.57
2022-09-09T22:08:43.551Z,0.82
2022-09-09T22:11:12.079Z,0.80
2022-09-09T22:13:39.263Z,0.90
2022-09-09T22:16:12.308Z,0.85
2022-09-09T22:18:40.153Z,0.50
2022-09-09T22:21:16.141Z,0.60
2022-09-09T22:23:43.550Z,0.82
2022-09-09T22:26:11.261Z,0.73
2022-09-09T22:28:38.965Z,1.00
2022-09-09T22:31:06.655Z,1.30
2022-09-09T22:33:34.961Z,0.57
2022-09-09T22:36:02.163Z,0.90
2022-09-09T22:38:29.566Z,1.02
2022-09-09T22:40:56.717Z,0.85
2022-09-09T22:43:23.816Z,1.00
2022-09-09T22:45:51.272Z,1.20
2022-09-09T22:48:18.625Z,1.30
2022-09-09T22:50:47.415Z,1.63
2022-09-09T22:53:16.436Z,1.00
2022-09-09T22:55:54.617Z,1.20
2022-09-09T22:58:22.585Z,1.27
2022-09-09T23:00:49.633Z,1.35
2022-09-09T23:03:16.631Z,1.25
2022-09-09T23:05:43.777Z,1.25
2022-09-09T23:08:11.082Z,1.10
2022-09-09T23:10:43.252Z,1.13
2022-09-09T23:13:10.195Z,1.40
2022-09-09T23:15:37.677Z,1.10
2022-09-09T23:18:04.696Z,0.80
2022-09-09T23:20:32.408Z,0.90
2022-09-09T23:22:59.744Z,1.33
2022-09-09T23:25:27.936Z,0.90
2022-09-09T23:27:55.036Z,0.40
2022-09-09T23:30:22.030Z,1.00
2022-09-09T23:32:49.743Z,0.52
2022-09-09T23:35:16.841Z,0.60
2022-09-09T23:37:43.889Z,1.00
2022-09-09T23:40:11.367Z,1.30
2022-09-09T23:42:38.597Z,1.05
2022-09-09T23:45:06.413Z,1.15
2022-09-09T23:47:33.359Z,0.70
2022-09-09T23:50:00.406Z,0.90
2022-09-09T23:52:27.400Z,1.02
2022-09-09T23:54:55.729Z,0.90
2022-09-09T23:57:22.673Z,1.38
2022-09-09T23:59:49.671Z,0.70
